Time;durP1;ratioP1;P1;durP2;ratioP2;P2;SDS_P1;SDS_P2;PMS_P1;PMS_P2;Temp;Humidity;BMP_temperature;BMP_pressure;BME280_temperature;BME280_humidity;BME280_pressure;Samples;Min_cycle;Max_cycle;Signal;HPM_P1;HPM_P2
2021/04/25 00:00:27;;;;;;;9.03;5.90;;;;;;;;;;12795177;23;20180;-73
2021/04/25 00:05:29;;;;;;;9.87;6.30;;;;;;;;;;12800378;23;20192;-74
2021/04/25 00:10:31;;;;;;;11.17;6.17;;;;;;;;;;12799885;23;20226;-73
2021/04/25 00:15:35;;;;;;;13.67;6.20;;;;;;;;;;12795922;23;20210;-73
2021/04/25 00:20:36;;;;;;;12.20;6.40;;;;;;;;;;12800749;23;20206;-74
2021/04/25 00:25:38;;;;;;;11.10;6.53;;;;;;;;;;12800240;23;20175;-74
2021/04/25 00:30:41;;;;;;;10.37;6.10;;;;;;;;;;12797251;23;20203;-74
2021/04/25 00:35:43;;;;;;;9.67;5.63;;;;;;;;;;12799524;23;20206;-74
2021/04/25 00:40:45;;;;;;;12.40;6.00;;;;;;;;;;12802861;23;20238;-74
2021/04/25 00:45:47;;;;;;;12.03;5.83;;;;;;;;;;12815608;23;20484;-74
2021/04/25 00:50:49;;;;;;;12.27;6.00;;;;;;;;;;12823770;23;20212;-74
2021/04/25 00:55:55;;;;;;;11.27;5.63;;;;;;;;;;12822652;23;20187;-74
2021/04/25 01:00:58;;;;;;;11.60;5.87;;;;;;;;;;12797434;23;20671;-74
2021/04/25 01:05:59;;;;;;;10.30;5.93;;;;;;;;;;12800988;23;20186;-74
2021/04/25 01:11:02;;;;;;;9.10;5.07;;;;;;;;;;12802395;23;20211;-73
2021/04/25 01:16:05;;;;;;;8.03;5.03;;;;;;;;;;12798107;23;20725;-74
2021/04/25 01:21:07;;;;;;;10.43;5.03;;;;;;;;;;12820631;23;20268;-74
2021/04/25 01:26:09;;;;;;;9.20;4.87;;;;;;;;;;12799400;23;20178;-75
2021/04/25 01:31:11;;;;;;;12.73;5.73;;;;;;;;;;12813976;23;20207;-74
2021/04/25 01:36:15;;;;;;;7.93;5.30;;;;;;;;;;12823794;23;20187;-74
2021/04/25 01:41:16;;;;;;;10.40;5.10;;;;;;;;;;12796746;23;20230;-76
2021/04/25 01:46:19;;;;;;;10.17;5.27;;;;;;;;;;12795370;23;20230;-74
2021/04/25 01:51:21;;;;;;;10.90;5.30;;;;;;;;;;12799537;23;20211;-74
2021/04/25 01:56:23;;;;;;;11.63;5.27;;;;;;;;;;12818514;23;20663;-75
2021/04/25 02:01:25;;;;;;;11.63;5.60;;;;;;;;;;12794188;23;20679;-74
2021/04/25 02:06:29;;;;;;;8.73;4.97;;;;;;;;;;12821088;23;20660;-74
2021/04/25 02:11:31;;;;;;;10.13;5.13;;;;;;;;;;12817888;23;20210;-74
2021/04/25 02:16:33;;;;;;;13.03;5.20;;;;;;;;;;12813445;23;20531;-73
2021/04/25 02:21:37;;;;;;;9.97;5.17;;;;;;;;;;12797498;23;20210;-73
2021/04/25 02:26:38;;;;;;;9.07;5.13;;;;;;;;;;12816463;23;20187;-73
2021/04/25 02:31:40;;;;;;;9.07;4.60;;;;;;;;;;12790209;23;20677;-73
2021/04/25 02:36:43;;;;;;;8.73;4.73;;;;;;;;;;12808988;23;20609;-74
2021/04/25 02:41:45;;;;;;;8.63;4.80;;;;;;;;;;12794414;23;20189;-73
2021/04/25 02:46:47;;;;;;;11.13;4.60;;;;;;;;;;12812786;23;20670;-73
2021/04/25 02:51:51;;;;;;;8.03;4.67;;;;;;;;;;12794346;23;20302;-74
2021/04/25 02:56:54;;;;;;;7.70;4.20;;;;;;;;;;12817487;23;20251;-74
2021/04/25 03:01:56;;;;;;;8.50;4.27;;;;;;;;;;12814902;23;20530;-73
2021/04/25 03:07:00;;;;;;;8.67;4.00;;;;;;;;;;12825867;23;20172;-74
2021/04/25 03:12:02;;;;;;;8.80;4.03;;;;;;;;;;12799430;23;20243;-74
2021/04/25 03:17:04;;;;;;;7.73;4.17;;;;;;;;;;12817577;23;20227;-74
2021/04/25 03:22:07;;;;;;;8.27;4.30;;;;;;;;;;12801890;23;20176;-74
2021/04/25 03:27:09;;;;;;;9.50;4.07;;;;;;;;;;12800468;23;20180;-74
2021/04/25 03:32:11;;;;;;;7.70;3.90;;;;;;;;;;12811872;23;20203;-74
2021/04/25 03:37:14;;;;;;;7.70;3.57;;;;;;;;;;12822790;23;20187;-73
2021/04/25 03:42:16;;;;;;;8.77;3.60;;;;;;;;;;12797698;23;20180;-72
2021/04/25 03:47:19;;;;;;;8.83;3.60;;;;;;;;;;12817780;23;20245;-73
2021/04/25 03:52:21;;;;;;;8.70;3.40;;;;;;;;;;12820811;23;20217;-73
2021/04/25 03:57:24;;;;;;;5.37;3.20;;;;;;;;;;12795626;23;20993;-73
2021/04/25 04:02:26;;;;;;;8.00;3.60;;;;;;;;;;12796762;23;20199;-73
2021/04/25 04:07:29;;;;;;;8.17;3.40;;;;;;;;;;12818003;23;20254;-73
2021/04/25 04:12:31;;;;;;;8.47;3.10;;;;;;;;;;12816374;23;20557;-72
2021/04/25 04:17:33;;;;;;;10.97;3.13;;;;;;;;;;12794374;23;20250;-73
2021/04/25 04:22:37;;;;;;;8.37;2.97;;;;;;;;;;12819574;23;20580;-73
2021/04/25 04:27:39;;;;;;;8.13;2.83;;;;;;;;;;12793735;23;20179;-74
2021/04/25 04:32:41;;;;;;;5.50;2.30;;;;;;;;;;12820459;23;20306;-75
2021/04/25 04:37:44;;;;;;;6.20;2.40;;;;;;;;;;12816376;23;20188;-72
2021/04/25 04:42:45;;;;;;;7.23;2.40;;;;;;;;;;12814307;23;20693;-73
2021/04/25 04:47:48;;;;;;;7.87;2.80;;;;;;;;;;12816672;23;20184;-74
2021/04/25 04:52:51;;;;;;;11.67;2.47;;;;;;;;;;12818270;23;20242;-74
2021/04/25 04:57:52;;;;;;;5.33;2.13;;;;;;;;;;12791086;23;20182;-73
2021/04/25 05:02:54;;;;;;;6.97;2.40;;;;;;;;;;12819069;23;20698;-73
2021/04/25 05:07:57;;;;;;;8.03;2.30;;;;;;;;;;12797142;23;20714;-73
2021/04/25 05:13:00;;;;;;;3.73;2.07;;;;;;;;;;12795755;23;20231;-74
2021/04/25 05:18:02;;;;;;;8.17;2.67;;;;;;;;;;12794249;23;21323;-74
2021/04/25 05:23:05;;;;;;;6.90;2.53;;;;;;;;;;12815076;23;20614;-74
2021/04/25 05:28:07;;;;;;;6.60;2.50;;;;;;;;;;12810269;23;20176;-73
2021/04/25 05:33:08;;;;;;;6.40;2.57;;;;;;;;;;12795311;23;20222;-73
2021/04/25 05:38:12;;;;;;;6.57;2.27;;;;;;;;;;12796183;23;20187;-76
2021/04/25 05:43:13;;;;;;;7.77;2.70;;;;;;;;;;12795696;23;20612;-74
2021/04/25 05:48:15;;;;;;;11.80;2.23;;;;;;;;;;12794217;23;20187;-73
2021/04/25 05:53:19;;;;;;;6.70;2.23;;;;;;;;;;12797444;23;20211;-73
2021/04/25 05:58:21;;;;;;;9.17;2.40;;;;;;;;;;12793127;23;20172;-76
2021/04/25 06:03:23;;;;;;;10.50;2.60;;;;;;;;;;12795362;23;20202;-76
2021/04/25 06:08:26;;;;;;;5.50;2.63;;;;;;;;;;12815293;23;20539;-77
2021/04/25 06:13:27;;;;;;;8.23;2.60;;;;;;;;;;12812529;23;20594;-76
2021/04/25 06:18:31;;;;;;;7.97;2.50;;;;;;;;;;12786503;23;20728;-76
2021/04/25 06:23:34;;;;;;;10.03;2.47;;;;;;;;;;12815559;23;20206;-75
2021/04/25 06:28:36;;;;;;;6.17;2.40;;;;;;;;;;12787420;23;20180;-75
2021/04/25 06:33:38;;;;;;;7.47;2.47;;;;;;;;;;12791253;23;20294;-76
2021/04/25 06:38:41;;;;;;;8.07;2.67;;;;;;;;;;12804672;23;20242;-74
2021/04/25 06:43:43;;;;;;;6.43;2.70;;;;;;;;;;12799518;23;20364;-78
2021/04/25 06:48:45;;;;;;;7.67;2.60;;;;;;;;;;12800131;23;20557;-89
2021/04/25 06:53:57;;;;;;;7.67;2.90;;;;;;;;;;12816730;23;20207;-76
2021/04/25 06:59:00;;;;;;;6.80;2.20;;;;;;;;;;12794275;23;20221;-76
2021/04/25 07:04:02;;;;;;;5.07;2.17;;;;;;;;;;12793102;23;20284;-76
2021/04/25 07:09:06;;;;;;;7.10;2.47;;;;;;;;;;12796926;23;20971;-79
2021/04/25 07:14:08;;;;;;;8.83;2.70;;;;;;;;;;12812831;23;20183;-77
2021/04/25 07:19:10;;;;;;;7.77;2.40;;;;;;;;;;12814739;23;20589;-77
2021/04/25 07:24:13;;;;;;;7.57;2.23;;;;;;;;;;12818254;23;20175;-75
2021/04/25 07:29:15;;;;;;;8.97;2.53;;;;;;;;;;12795866;23;20625;-75
2021/04/25 07:34:22;;;;;;;6.10;2.00;;;;;;;;;;12818992;23;20565;-77
2021/04/25 07:39:25;;;;;;;7.13;2.30;;;;;;;;;;12815716;23;20727;-77
2021/04/25 07:44:27;;;;;;;6.80;1.80;;;;;;;;;;12791737;23;20590;-76
2021/04/25 07:49:30;;;;;;;10.60;2.10;;;;;;;;;;12794191;23;20203;-77
2021/04/25 07:54:33;;;;;;;7.53;2.13;;;;;;;;;;12796650;23;20191;-76
2021/04/25 07:59:35;;;;;;;6.77;1.80;;;;;;;;;;12791261;23;20184;-76
2021/04/25 08:04:37;;;;;;;5.33;1.90;;;;;;;;;;12785972;23;20767;-76
2021/04/25 08:09:40;;;;;;;7.83;2.30;;;;;;;;;;12793031;23;20238;-79
2021/04/25 08:14:42;;;;;;;6.73;1.83;;;;;;;;;;12793813;23;20709;-76
2021/04/25 08:19:44;;;;;;;7.97;2.00;;;;;;;;;;12798660;23;20886;-76
2021/04/25 08:24:47;;;;;;;8.70;1.90;;;;;;;;;;12820204;23;20618;-79
2021/04/25 08:29:49;;;;;;;7.10;2.30;;;;;;;;;;12791699;23;20213;-76
2021/04/25 08:34:51;;;;;;;5.93;1.93;;;;;;;;;;12809633;23;20675;-77
2021/04/25 08:39:54;;;;;;;9.50;1.93;;;;;;;;;;12818910;23;20639;-77
2021/04/25 08:44:56;;;;;;;7.07;2.07;;;;;;;;;;12799534;23;20183;-77
2021/04/25 08:50:00;;;;;;;5.93;2.00;;;;;;;;;;12796324;23;20302;-77
2021/04/25 08:55:03;;;;;;;7.63;2.00;;;;;;;;;;12810247;23;20897;-76
2021/04/25 09:00:06;;;;;;;9.87;2.00;;;;;;;;;;12800344;23;20186;-77
2021/04/25 09:05:08;;;;;;;7.13;2.10;;;;;;;;;;12801168;23;20231;-77
2021/04/25 09:10:11;;;;;;;8.60;2.10;;;;;;;;;;12800893;23;20586;-78
2021/04/25 09:15:27;;;;;;;4.73;1.93;;;;;;;;;;12823086;23;20546;-75
2021/04/25 09:20:31;;;;;;;9.50;1.90;;;;;;;;;;12795278;23;20175;-77
2021/04/25 09:25:34;;;;;;;7.03;2.43;;;;;;;;;;12822013;23;20258;-76
2021/04/25 09:30:38;;;;;;;5.53;1.93;;;;;;;;;;12797686;23;20496;-76
2021/04/25 09:35:40;;;;;;;6.63;1.77;;;;;;;;;;12809745;23;20187;-74
2021/04/25 09:40:44;;;;;;;8.33;1.90;;;;;;;;;;12804347;23;20195;-77
2021/04/25 09:45:46;;;;;;;7.23;2.37;;;;;;;;;;12820630;23;20662;-80
2021/04/25 09:51:03;;;;;;;4.67;1.83;;;;;;;;;;12807272;23;20207;-85
2021/04/25 09:56:10;;;;;;;7.10;2.00;;;;;;;;;;12828002;23;20171;-78
2021/04/25 10:01:24;;;;;;;6.93;2.13;;;;;;;;;;12822793;23;20303;-76
2021/04/25 10:06:29;;;;;;;7.07;2.10;;;;;;;;;;12826750;23;20174;-78
2021/04/25 10:11:33;;;;;;;5.70;1.90;;;;;;;;;;12807420;23;20218;-74
2021/04/25 10:16:34;;;;;;;6.90;2.00;;;;;;;;;;12801661;23;20176;-75
2021/04/25 10:21:37;;;;;;;6.67;2.00;;;;;;;;;;12807350;23;20598;-81
2021/04/25 10:26:41;;;;;;;5.57;2.00;;;;;;;;;;12807533;23;20176;-78
2021/04/25 10:31:43;;;;;;;6.43;2.13;;;;;;;;;;12826089;23;20218;-78
2021/04/25 10:37:01;;;;;;;6.97;1.90;;;;;;;;;;12829780;23;20834;-75
2021/04/25 10:42:25;;;;;;;6.80;1.93;;;;;;;;;;12807224;23;20254;-76
2021/04/25 10:47:28;;;;;;;8.23;2.13;;;;;;;;;;12792767;23;20606;-77
2021/04/25 10:52:31;;;;;;;6.33;2.03;;;;;;;;;;12807021;23;20211;-77
2021/04/25 10:57:33;;;;;;;8.63;2.30;;;;;;;;;;12825083;23;20692;-75
2021/04/25 11:02:46;;;;;;;7.40;2.20;;;;;;;;;;12826647;23;20200;-77
2021/04/25 11:07:50;;;;;;;5.90;1.90;;;;;;;;;;12807203;23;20529;-76
2021/04/25 11:12:52;;;;;;;5.87;2.20;;;;;;;;;;12803750;23;20696;-76
2021/04/25 11:17:55;;;;;;;8.53;2.23;;;;;;;;;;12804020;23;20179;-78
2021/04/25 11:22:57;;;;;;;7.40;2.20;;;;;;;;;;12805763;23;20182;-77
2021/04/25 11:27:59;;;;;;;5.63;1.90;;;;;;;;;;12803400;23;21003;-79
2021/04/25 11:33:20;;;;;;;7.27;1.83;;;;;;;;;;12828668;23;20688;-79
2021/04/25 11:38:23;;;;;;;5.17;1.93;;;;;;;;;;12803941;23;20209;-77
2021/04/25 11:43:25;;;;;;;7.80;1.90;;;;;;;;;;12827163;23;20180;-77
2021/04/25 11:48:27;;;;;;;7.37;1.83;;;;;;;;;;12824918;23;20180;-78
2021/04/25 11:53:31;;;;;;;6.60;2.20;;;;;;;;;;12827405;23;20206;-77
2021/04/25 11:58:33;;;;;;;9.07;2.17;;;;;;;;;;12801415;23;20625;-77
2021/04/25 12:03:47;;;;;;;7.13;2.20;;;;;;;;;;12827852;23;20246;-77
2021/04/25 12:08:53;;;;;;;5.97;1.80;;;;;;;;;;12825153;23;20618;-76
2021/04/25 12:13:56;;;;;;;6.73;2.07;;;;;;;;;;12809731;23;20207;-78
2021/04/25 12:18:58;;;;;;;5.33;1.93;;;;;;;;;;12821238;23;20182;-77
2021/04/25 12:24:02;;;;;;;8.70;2.90;;;;;;;;;;12800844;23;20549;-75
2021/04/25 12:29:03;;;;;;;7.50;2.30;;;;;;;;;;12797707;23;20190;-74
2021/04/25 20:38:54;;;;;;;8.33;2.03;;;;;;;;;;12856350;23;20178;-81
2021/04/25 20:43:55;;;;;;;5.43;2.17;;;;;;;;;;12880409;23;20663;-82
2021/04/25 20:48:58;;;;;;;7.00;1.93;;;;;;;;;;12861443;23;20377;-81
2021/04/25 20:54:01;;;;;;;7.77;2.10;;;;;;;;;;12858197;23;20680;-81
2021/04/25 20:59:03;;;;;;;9.47;1.83;;;;;;;;;;12859188;23;20183;-81
2021/04/25 21:04:05;;;;;;;5.47;2.10;;;;;;;;;;12858701;22;20548;-83
2021/04/25 21:09:09;;;;;;;5.60;1.93;;;;;;;;;;12859292;23;20248;-81
2021/04/25 21:14:11;;;;;;;7.53;2.00;;;;;;;;;;12855342;23;20641;-80
2021/04/25 21:19:13;;;;;;;3.87;1.63;;;;;;;;;;12862909;23;20175;-84
2021/04/25 21:24:16;;;;;;;6.27;1.93;;;;;;;;;;12858100;23;20585;-83
2021/04/25 21:29:18;;;;;;;6.87;1.97;;;;;;;;;;12859143;23;20455;-85
2021/04/25 21:34:20;;;;;;;7.17;1.90;;;;;;;;;;12860432;23;20695;-85
2021/04/25 21:39:23;;;;;;;7.57;2.00;;;;;;;;;;12859744;23;20481;-84
2021/04/25 21:44:28;;;;;;;7.10;1.97;;;;;;;;;;12852135;23;20307;-85
2021/04/25 21:49:30;;;;;;;5.80;1.60;;;;;;;;;;12883305;23;20182;-84
2021/04/25 21:54:33;;;;;;;9.80;1.90;;;;;;;;;;12859878;23;21004;-82
2021/04/25 21:59:35;;;;;;;4.57;1.60;;;;;;;;;;12859703;23;20190;-83
2021/04/25 22:04:37;;;;;;;5.33;1.80;;;;;;;;;;12862091;22;20205;-83
2021/04/25 22:09:40;;;;;;;9.03;1.90;;;;;;;;;;12868631;23;20242;-83
2021/04/25 22:14:42;;;;;;;5.63;1.90;;;;;;;;;;12881782;23;20213;-83
2021/04/25 22:19:44;;;;;;;3.77;1.70;;;;;;;;;;12863514;23;20548;-83
2021/04/25 22:24:47;;;;;;;6.10;1.87;;;;;;;;;;12866905;23;20178;-83
2021/04/25 22:29:49;;;;;;;5.43;1.87;;;;;;;;;;12859592;23;20178;-83
2021/04/25 22:34:51;;;;;;;9.87;2.03;;;;;;;;;;12865971;23;20213;-83
2021/04/25 22:39:54;;;;;;;5.60;2.10;;;;;;;;;;12864372;23;20640;-83
2021/04/25 22:44:55;;;;;;;7.90;1.90;;;;;;;;;;12884408;23;20178;-83
2021/04/25 22:49:57;;;;;;;6.30;1.77;;;;;;;;;;12866126;23;20179;-83
2021/04/25 22:55:00;;;;;;;6.00;1.73;;;;;;;;;;12866218;23;20597;-83
2021/04/25 23:00:04;;;;;;;6.10;2.00;;;;;;;;;;12860772;23;20681;-82
2021/04/25 23:05:06;;;;;;;10.70;2.00;;;;;;;;;;12867017;22;20312;-83
2021/04/25 23:10:10;;;;;;;5.30;2.03;;;;;;;;;;12862989;23;20617;-84
2021/04/25 23:15:13;;;;;;;4.70;2.33;;;;;;;;;;12862283;23;20203;-84
2021/04/25 23:20:16;;;;;;;8.10;2.10;;;;;;;;;;12865775;23;20199;-84
2021/04/25 23:25:20;;;;;;;10.13;2.10;;;;;;;;;;12865504;23;20463;-84
2021/04/25 23:30:23;;;;;;;6.07;1.90;;;;;;;;;;12858580;23;20210;-83
2021/04/25 23:35:25;;;;;;;10.53;2.00;;;;;;;;;;12865986;23;20179;-84
2021/04/25 23:40:28;;;;;;;5.77;2.13;;;;;;;;;;12860241;23;20500;-83
2021/04/25 23:45:30;;;;;;;10.83;2.60;;;;;;;;;;12858714;23;20242;-83
2021/04/25 23:50:32;;;;;;;5.93;2.00;;;;;;;;;;12885360;23;20603;-82
2021/04/25 23:55:34;;;;;;;4.17;1.83;;;;;;;;;;12865037;23;20521;-83
